sensor_id;sensor_type;location;lat;lon;timestamp;P1;durP1;ratioP1;P2;durP2;ratioP2
72286;SDS011;60221;45.696;16.076;2023-09-19T00:01:00;7.90;;;3.40;;
72286;SDS011;60221;45.696;16.076;2023-09-19T00:03:26;7.80;;;2.90;;
72286;SDS011;60221;45.696;16.076;2023-09-19T00:05:55;7.40;;;3.00;;
72286;SDS011;60221;45.696;16.076;2023-09-19T00:08:24;11.30;;;3.40;;
72286;SDS011;60221;45.696;16.076;2023-09-19T00:10:50;9.40;;;3.40;;
72286;SDS011;60221;45.696;16.076;2023-09-19T00:13:17;8.80;;;3.20;;
72286;SDS011;60221;45.696;16.076;2023-09-19T00:15:46;9.50;;;3.30;;
72286;SDS011;60221;45.696;16.076;2023-09-19T00:18:19;6.20;;;2.90;;
72286;SDS011;60221;45.696;16.076;2023-09-19T00:20:51;7.70;;;2.80;;
72286;SDS011;60221;45.696;16.076;2023-09-19T00:23:19;12.70;;;3.90;;
72286;SDS011;60221;45.696;16.076;2023-09-19T00:25:46;9.90;;;3.10;;
72286;SDS011;60221;45.696;16.076;2023-09-19T00:28:13;9.20;;;3.20;;
72286;SDS011;60221;45.696;16.076;2023-09-19T00:30:42;6.80;;;2.80;;
72286;SDS011;60221;45.696;16.076;2023-09-19T00:33:09;8.60;;;3.10;;
72286;SDS011;60221;45.696;16.076;2023-09-19T00:35:38;9.50;;;3.00;;
72286;SDS011;60221;45.696;16.076;2023-09-19T00:38:04;7.00;;;2.80;;
72286;SDS011;60221;45.696;16.076;2023-09-19T00:40:33;9.60;;;3.50;;
72286;SDS011;60221;45.696;16.076;2023-09-19T00:43:00;13.80;;;3.20;;
72286;SDS011;60221;45.696;16.076;2023-09-19T00:45:27;15.60;;;3.30;;
72286;SDS011;60221;45.696;16.076;2023-09-19T00:47:55;8.70;;;2.70;;
72286;SDS011;60221;45.696;16.076;2023-09-19T00:50:24;9.20;;;3.40;;
72286;SDS011;60221;45.696;16.076;2023-09-19T00:52:53;9.30;;;3.20;;
72286;SDS011;60221;45.696;16.076;2023-09-19T00:55:22;7.30;;;3.10;;
72286;SDS011;60221;45.696;16.076;2023-09-19T00:57:50;11.00;;;2.90;;
72286;SDS011;60221;45.696;16.076;2023-09-19T01:00:18;9.10;;;3.30;;
72286;SDS011;60221;45.696;16.076;2023-09-19T01:02:46;9.90;;;3.40;;
72286;SDS011;60221;45.696;16.076;2023-09-19T01:05:13;8.50;;;2.90;;
72286;SDS011;60221;45.696;16.076;2023-09-19T01:07:41;9.80;;;2.80;;
72286;SDS011;60221;45.696;16.076;2023-09-19T01:10:08;8.70;;;3.20;;
72286;SDS011;60221;45.696;16.076;2023-09-19T01:15:31;6.70;;;2.70;;
72286;SDS011;60221;45.696;16.076;2023-09-19T01:21:00;11.00;;;3.00;;
72286;SDS011;60221;45.696;16.076;2023-09-19T01:23:51;11.70;;;3.20;;
72286;SDS011;60221;45.696;16.076;2023-09-19T01:31:59;9.50;;;3.40;;
72286;SDS011;60221;45.696;16.076;2023-09-19T01:37:14;10.30;;;3.90;;
72286;SDS011;60221;45.696;16.076;2023-09-19T01:39:45;10.10;;;3.20;;
72286;SDS011;60221;45.696;16.076;2023-09-19T01:42:24;10.70;;;3.50;;
72286;SDS011;60221;45.696;16.076;2023-09-19T01:45:02;14.80;;;4.10;;
72286;SDS011;60221;45.696;16.076;2023-09-19T01:47:35;12.60;;;3.50;;
72286;SDS011;60221;45.696;16.076;2023-09-19T01:52:57;9.10;;;3.60;;
72286;SDS011;60221;45.696;16.076;2023-09-19T01:55:25;11.60;;;4.00;;
72286;SDS011;60221;45.696;16.076;2023-09-19T01:58:14;11.70;;;3.80;;
72286;SDS011;60221;45.696;16.076;2023-09-19T02:00:42;10.80;;;3.10;;
72286;SDS011;60221;45.696;16.076;2023-09-19T02:03:11;12.40;;;4.40;;
72286;SDS011;60221;45.696;16.076;2023-09-19T02:05:38;9.60;;;3.10;;
72286;SDS011;60221;45.696;16.076;2023-09-19T02:08:05;10.50;;;4.00;;
72286;SDS011;60221;45.696;16.076;2023-09-19T02:10:32;9.60;;;3.70;;
72286;SDS011;60221;45.696;16.076;2023-09-19T02:13:00;10.50;;;3.50;;
72286;SDS011;60221;45.696;16.076;2023-09-19T02:15:27;11.00;;;3.50;;
72286;SDS011;60221;45.696;16.076;2023-09-19T02:17:54;9.40;;;3.60;;
72286;SDS011;60221;45.696;16.076;2023-09-19T02:20:23;11.00;;;3.50;;
72286;SDS011;60221;45.696;16.076;2023-09-19T02:22:50;8.70;;;3.40;;
72286;SDS011;60221;45.696;16.076;2023-09-19T02:25:17;9.80;;;3.80;;
72286;SDS011;60221;45.696;16.076;2023-09-19T02:27:46;13.60;;;3.30;;
72286;SDS011;60221;45.696;16.076;2023-09-19T02:30:12;12.10;;;3.10;;
72286;SDS011;60221;45.696;16.076;2023-09-19T02:32:41;12.40;;;3.50;;
72286;SDS011;60221;45.696;16.076;2023-09-19T02:35:08;11.70;;;3.80;;
72286;SDS011;60221;45.696;16.076;2023-09-19T02:37:37;11.70;;;3.10;;
72286;SDS011;60221;45.696;16.076;2023-09-19T02:40:04;10.10;;;3.30;;
72286;SDS011;60221;45.696;16.076;2023-09-19T02:42:48;14.00;;;3.30;;
72286;SDS011;60221;45.696;16.076;2023-09-19T02:45:16;17.70;;;4.20;;
72286;SDS011;60221;45.696;16.076;2023-09-19T02:47:46;14.10;;;4.40;;
72286;SDS011;60221;45.696;16.076;2023-09-19T02:50:14;13.30;;;2.70;;
72286;SDS011;60221;45.696;16.076;2023-09-19T02:52:43;9.80;;;3.40;;
72286;SDS011;60221;45.696;16.076;2023-09-19T02:55:13;10.60;;;3.20;;
72286;SDS011;60221;45.696;16.076;2023-09-19T02:57:51;15.30;;;3.30;;
72286;SDS011;60221;45.696;16.076;2023-09-19T03:00:18;11.00;;;2.90;;
72286;SDS011;60221;45.696;16.076;2023-09-19T03:02:52;15.10;;;4.40;;
72286;SDS011;60221;45.696;16.076;2023-09-19T03:05:20;13.60;;;3.60;;
72286;SDS011;60221;45.696;16.076;2023-09-19T03:07:47;11.30;;;3.30;;
72286;SDS011;60221;45.696;16.076;2023-09-19T03:10:21;9.60;;;3.40;;
72286;SDS011;60221;45.696;16.076;2023-09-19T03:12:48;12.40;;;3.50;;
72286;SDS011;60221;45.696;16.076;2023-09-19T03:15:15;13.60;;;3.80;;
72286;SDS011;60221;45.696;16.076;2023-09-19T03:17:42;12.10;;;3.70;;
72286;SDS011;60221;45.696;16.076;2023-09-19T03:20:09;11.10;;;3.90;;
72286;SDS011;60221;45.696;16.076;2023-09-19T03:22:38;12.00;;;3.50;;
72286;SDS011;60221;45.696;16.076;2023-09-19T03:25:07;14.30;;;4.20;;
72286;SDS011;60221;45.696;16.076;2023-09-19T03:27:34;11.60;;;3.80;;
72286;SDS011;60221;45.696;16.076;2023-09-19T03:30:02;11.30;;;3.50;;
72286;SDS011;60221;45.696;16.076;2023-09-19T03:32:33;13.80;;;3.70;;
72286;SDS011;60221;45.696;16.076;2023-09-19T03:35:00;17.10;;;4.10;;
72286;SDS011;60221;45.696;16.076;2023-09-19T03:37:27;12.80;;;3.90;;
72286;SDS011;60221;45.696;16.076;2023-09-19T03:39:54;12.60;;;4.50;;
72286;SDS011;60221;45.696;16.076;2023-09-19T03:42:21;11.20;;;3.80;;
72286;SDS011;60221;45.696;16.076;2023-09-19T03:44:52;12.20;;;3.60;;
72286;SDS011;60221;45.696;16.076;2023-09-19T03:47:19;11.10;;;4.30;;
72286;SDS011;60221;45.696;16.076;2023-09-19T03:49:46;12.90;;;3.60;;
72286;SDS011;60221;45.696;16.076;2023-09-19T03:52:13;11.50;;;4.20;;
72286;SDS011;60221;45.696;16.076;2023-09-19T03:54:41;13.30;;;4.10;;
72286;SDS011;60221;45.696;16.076;2023-09-19T03:57:07;13.70;;;3.50;;
72286;SDS011;60221;45.696;16.076;2023-09-19T03:59:34;14.70;;;4.00;;
72286;SDS011;60221;45.696;16.076;2023-09-19T04:02:02;7.80;;;3.40;;
72286;SDS011;60221;45.696;16.076;2023-09-19T04:04:29;10.60;;;3.50;;
72286;SDS011;60221;45.696;16.076;2023-09-19T04:06:56;15.00;;;4.20;;
72286;SDS011;60221;45.696;16.076;2023-09-19T04:09:23;20.20;;;7.90;;
72286;SDS011;60221;45.696;16.076;2023-09-19T04:11:49;13.60;;;4.40;;
72286;SDS011;60221;45.696;16.076;2023-09-19T04:14:17;17.00;;;3.70;;
72286;SDS011;60221;45.696;16.076;2023-09-19T04:16:44;13.40;;;4.20;;
72286;SDS011;60221;45.696;16.076;2023-09-19T04:19:11;10.90;;;3.70;;
72286;SDS011;60221;45.696;16.076;2023-09-19T04:21:37;13.00;;;3.90;;
72286;SDS011;60221;45.696;16.076;2023-09-19T04:24:04;10.40;;;3.80;;
72286;SDS011;60221;45.696;16.076;2023-09-19T04:26:31;11.50;;;3.80;;
72286;SDS011;60221;45.696;16.076;2023-09-19T04:28:58;14.20;;;4.90;;
72286;SDS011;60221;45.696;16.076;2023-09-19T04:31:25;12.60;;;3.90;;
72286;SDS011;60221;45.696;16.076;2023-09-19T04:33:52;14.00;;;4.10;;
72286;SDS011;60221;45.696;16.076;2023-09-19T04:36:19;13.10;;;3.90;;
72286;SDS011;60221;45.696;16.076;2023-09-19T04:39:01;10.40;;;4.00;;
72286;SDS011;60221;45.696;16.076;2023-09-19T04:41:31;10.00;;;3.30;;
72286;SDS011;60221;45.696;16.076;2023-09-19T04:43:58;10.30;;;3.70;;
72286;SDS011;60221;45.696;16.076;2023-09-19T04:46:25;7.90;;;3.20;;
72286;SDS011;60221;45.696;16.076;2023-09-19T04:48:52;10.40;;;3.60;;
72286;SDS011;60221;45.696;16.076;2023-09-19T04:51:18;11.10;;;4.10;;
72286;SDS011;60221;45.696;16.076;2023-09-19T04:53:47;11.10;;;4.00;;
72286;SDS011;60221;45.696;16.076;2023-09-19T04:56:14;13.70;;;4.90;;
72286;SDS011;60221;45.696;16.076;2023-09-19T04:58:41;13.90;;;5.80;;
72286;SDS011;60221;45.696;16.076;2023-09-19T05:01:08;10.60;;;5.00;;
72286;SDS011;60221;45.696;16.076;2023-09-19T05:03:38;20.80;;;7.90;;
72286;SDS011;60221;45.696;16.076;2023-09-19T05:06:05;18.10;;;6.00;;
72286;SDS011;60221;45.696;16.076;2023-09-19T05:08:31;12.50;;;4.90;;
72286;SDS011;60221;45.696;16.076;2023-09-19T05:10:58;16.20;;;5.00;;
72286;SDS011;60221;45.696;16.076;2023-09-19T05:13:27;11.90;;;4.30;;
72286;SDS011;60221;45.696;16.076;2023-09-19T05:15:54;29.40;;;12.40;;
72286;SDS011;60221;45.696;16.076;2023-09-19T05:18:21;29.40;;;11.00;;
72286;SDS011;60221;45.696;16.076;2023-09-19T05:20:48;19.80;;;7.80;;
72286;SDS011;60221;45.696;16.076;2023-09-19T05:23:16;16.50;;;5.90;;
72286;SDS011;60221;45.696;16.076;2023-09-19T05:25:43;13.20;;;5.50;;
72286;SDS011;60221;45.696;16.076;2023-09-19T05:28:10;13.30;;;4.50;;
72286;SDS011;60221;45.696;16.076;2023-09-19T05:30:38;11.10;;;5.00;;
72286;SDS011;60221;45.696;16.076;2023-09-19T05:33:06;10.80;;;4.40;;
72286;SDS011;60221;45.696;16.076;2023-09-19T05:35:34;13.50;;;4.40;;
72286;SDS011;60221;45.696;16.076;2023-09-19T05:38:06;11.70;;;4.20;;
72286;SDS011;60221;45.696;16.076;2023-09-19T05:40:35;10.00;;;3.50;;
72286;SDS011;60221;45.696;16.076;2023-09-19T05:43:02;13.50;;;4.30;;
72286;SDS011;60221;45.696;16.076;2023-09-19T05:45:32;19.60;;;5.60;;
72286;SDS011;60221;45.696;16.076;2023-09-19T05:48:06;18.60;;;5.20;;
72286;SDS011;60221;45.696;16.076;2023-09-19T05:50:34;14.80;;;4.70;;
72286;SDS011;60221;45.696;16.076;2023-09-19T05:53:00;20.20;;;5.00;;
72286;SDS011;60221;45.696;16.076;2023-09-19T05:55:27;15.30;;;4.20;;
72286;SDS011;60221;45.696;16.076;2023-09-19T05:57:55;13.20;;;4.00;;
72286;SDS011;60221;45.696;16.076;2023-09-19T06:00:22;14.90;;;4.20;;
72286;SDS011;60221;45.696;16.076;2023-09-19T06:02:52;20.00;;;5.50;;
72286;SDS011;60221;45.696;16.076;2023-09-19T06:05:20;22.60;;;6.20;;
72286;SDS011;60221;45.696;16.076;2023-09-19T06:07:47;14.80;;;5.30;;
72286;SDS011;60221;45.696;16.076;2023-09-19T06:10:14;18.60;;;4.50;;
72286;SDS011;60221;45.696;16.076;2023-09-19T06:12:44;13.20;;;4.80;;
72286;SDS011;60221;45.696;16.076;2023-09-19T06:15:11;16.10;;;5.10;;
72286;SDS011;60221;45.696;16.076;2023-09-19T06:17:54;15.20;;;5.50;;
72286;SDS011;60221;45.696;16.076;2023-09-19T06:20:26;13.70;;;5.20;;
72286;SDS011;60221;45.696;16.076;2023-09-19T06:22:53;13.40;;;4.30;;
72286;SDS011;60221;45.696;16.076;2023-09-19T06:25:20;15.60;;;5.00;;
72286;SDS011;60221;45.696;16.076;2023-09-19T06:27:49;12.90;;;4.70;;
72286;SDS011;60221;45.696;16.076;2023-09-19T06:30:18;15.00;;;4.80;;
72286;SDS011;60221;45.696;16.076;2023-09-19T06:32:45;11.70;;;4.20;;
72286;SDS011;60221;45.696;16.076;2023-09-19T06:35:13;12.30;;;4.60;;
72286;SDS011;60221;45.696;16.076;2023-09-19T06:37:40;12.00;;;4.10;;
72286;SDS011;60221;45.696;16.076;2023-09-19T06:40:08;15.10;;;4.30;;
72286;SDS011;60221;45.696;16.076;2023-09-19T06:42:43;12.20;;;4.00;;
72286;SDS011;60221;45.696;16.076;2023-09-19T06:45:11;11.80;;;3.50;;
72286;SDS011;60221;45.696;16.076;2023-09-19T06:47:40;11.00;;;3.20;;
72286;SDS011;60221;45.696;16.076;2023-09-19T06:50:07;10.60;;;3.50;;
72286;SDS011;60221;45.696;16.076;2023-09-19T06:52:42;8.10;;;2.30;;
72286;SDS011;60221;45.696;16.076;2023-09-19T06:55:09;8.80;;;2.40;;
72286;SDS011;60221;45.696;16.076;2023-09-19T06:57:38;11.30;;;2.30;;
72286;SDS011;60221;45.696;16.076;2023-09-19T07:00:07;11.30;;;3.70;;
72286;SDS011;60221;45.696;16.076;2023-09-19T07:02:42;11.20;;;4.10;;
72286;SDS011;60221;45.696;16.076;2023-09-19T07:05:09;9.10;;;2.80;;
72286;SDS011;60221;45.696;16.076;2023-09-19T07:07:36;6.50;;;2.20;;
72286;SDS011;60221;45.696;16.076;2023-09-19T07:10:03;14.30;;;7.00;;
72286;SDS011;60221;45.696;16.076;2023-09-19T07:12:32;10.10;;;3.40;;
72286;SDS011;60221;45.696;16.076;2023-09-19T07:15:01;6.80;;;2.20;;
72286;SDS011;60221;45.696;16.076;2023-09-19T07:17:28;6.90;;;1.80;;
72286;SDS011;60221;45.696;16.076;2023-09-19T07:19:56;7.00;;;2.00;;
72286;SDS011;60221;45.696;16.076;2023-09-19T07:22:28;6.80;;;2.10;;
72286;SDS011;60221;45.696;16.076;2023-09-19T07:24:54;5.40;;;1.90;;
72286;SDS011;60221;45.696;16.076;2023-09-19T07:27:21;11.90;;;5.70;;
72286;SDS011;60221;45.696;16.076;2023-09-19T07:29:48;28.10;;;15.10;;
72286;SDS011;60221;45.696;16.076;2023-09-19T07:32:18;11.00;;;5.40;;
72286;SDS011;60221;45.696;16.076;2023-09-19T07:34:45;5.00;;;2.00;;
72286;SDS011;60221;45.696;16.076;2023-09-19T07:37:12;21.60;;;11.70;;
72286;SDS011;60221;45.696;16.076;2023-09-19T07:39:41;13.90;;;7.80;;
72286;SDS011;60221;45.696;16.076;2023-09-19T07:42:07;7.10;;;3.10;;
72286;SDS011;60221;45.696;16.076;2023-09-19T07:44:35;6.20;;;2.50;;
72286;SDS011;60221;45.696;16.076;2023-09-19T07:47:02;7.80;;;1.90;;
72286;SDS011;60221;45.696;16.076;2023-09-19T07:49:29;7.40;;;2.30;;
72286;SDS011;60221;45.696;16.076;2023-09-19T07:51:56;7.20;;;3.00;;
72286;SDS011;60221;45.696;16.076;2023-09-19T07:54:24;6.20;;;1.90;;
72286;SDS011;60221;45.696;16.076;2023-09-19T07:56:50;5.30;;;1.80;;
72286;SDS011;60221;45.696;16.076;2023-09-19T07:59:17;4.80;;;1.60;;
72286;SDS011;60221;45.696;16.076;2023-09-19T08:01:44;4.40;;;1.70;;
72286;SDS011;60221;45.696;16.076;2023-09-19T08:04:11;4.60;;;1.30;;
72286;SDS011;60221;45.696;16.076;2023-09-19T08:06:38;4.50;;;1.30;;
72286;SDS011;60221;45.696;16.076;2023-09-19T08:09:05;4.00;;;1.20;;
72286;SDS011;60221;45.696;16.076;2023-09-19T08:11:35;6.10;;;1.20;;
72286;SDS011;60221;45.696;16.076;2023-09-19T08:14:02;6.10;;;1.70;;
72286;SDS011;60221;45.696;16.076;2023-09-19T08:16:29;6.40;;;2.10;;
72286;SDS011;60221;45.696;16.076;2023-09-19T08:18:56;11.20;;;2.30;;
72286;SDS011;60221;45.696;16.076;2023-09-19T08:21:23;6.20;;;2.60;;
72286;SDS011;60221;45.696;16.076;2023-09-19T08:23:50;8.10;;;2.40;;
72286;SDS011;60221;45.696;16.076;2023-09-19T08:26:17;8.70;;;2.70;;
72286;SDS011;60221;45.696;16.076;2023-09-19T08:28:44;6.70;;;2.30;;
72286;SDS011;60221;45.696;16.076;2023-09-19T08:31:10;10.50;;;3.00;;
72286;SDS011;60221;45.696;16.076;2023-09-19T08:33:37;6.80;;;2.20;;
72286;SDS011;60221;45.696;16.076;2023-09-19T08:36:06;17.80;;;3.70;;
72286;SDS011;60221;45.696;16.076;2023-09-19T08:38:34;8.20;;;4.80;;
72286;SDS011;60221;45.696;16.076;2023-09-19T08:41:05;7.50;;;2.20;;
72286;SDS011;60221;45.696;16.076;2023-09-19T08:43:33;5.30;;;1.50;;
72286;SDS011;60221;45.696;16.076;2023-09-19T08:48:38;8.00;;;1.40;;
72286;SDS011;60221;45.696;16.076;2023-09-19T08:51:28;6.30;;;1.70;;
72286;SDS011;60221;45.696;16.076;2023-09-19T08:54:08;4.80;;;1.30;;
72286;SDS011;60221;45.696;16.076;2023-09-19T08:56:37;4.80;;;1.40;;
72286;SDS011;60221;45.696;16.076;2023-09-19T08:59:06;5.10;;;1.40;;
72286;SDS011;60221;45.696;16.076;2023-09-19T09:01:34;3.10;;;1.10;;
72286;SDS011;60221;45.696;16.076;2023-09-19T09:04:01;3.70;;;1.10;;
72286;SDS011;60221;45.696;16.076;2023-09-19T09:06:29;4.00;;;1.30;;
72286;SDS011;60221;45.696;16.076;2023-09-19T09:08:56;4.20;;;1.00;;
72286;SDS011;60221;45.696;16.076;2023-09-19T09:11:22;6.00;;;1.40;;
72286;SDS011;60221;45.696;16.076;2023-09-19T09:13:54;6.40;;;1.30;;
72286;SDS011;60221;45.696;16.076;2023-09-19T09:16:21;5.30;;;1.20;;
72286;SDS011;60221;45.696;16.076;2023-09-19T09:18:52;5.70;;;1.10;;
72286;SDS011;60221;45.696;16.076;2023-09-19T09:21:21;6.20;;;1.40;;
72286;SDS011;60221;45.696;16.076;2023-09-19T09:23:49;5.50;;;1.20;;
72286;SDS011;60221;45.696;16.076;2023-09-19T09:26:16;5.20;;;1.20;;
72286;SDS011;60221;45.696;16.076;2023-09-19T09:28:46;5.50;;;1.50;;
72286;SDS011;60221;45.696;16.076;2023-09-19T09:31:24;3.70;;;1.20;;
72286;SDS011;60221;45.696;16.076;2023-09-19T09:33:52;6.80;;;1.40;;
72286;SDS011;60221;45.696;16.076;2023-09-19T09:36:36;5.70;;;1.70;;
72286;SDS011;60221;45.696;16.076;2023-09-19T09:39:04;5.60;;;1.50;;
72286;SDS011;60221;45.696;16.076;2023-09-19T09:41:43;7.30;;;1.40;;
72286;SDS011;60221;45.696;16.076;2023-09-19T09:44:13;6.80;;;1.20;;
72286;SDS011;60221;45.696;16.076;2023-09-19T09:46:45;4.10;;;1.40;;
72286;SDS011;60221;45.696;16.076;2023-09-19T09:49:41;7.00;;;1.40;;
72286;SDS011;60221;45.696;16.076;2023-09-19T09:52:21;5.20;;;1.40;;
72286;SDS011;60221;45.696;16.076;2023-09-19T09:55:00;7.40;;;1.60;;
72286;SDS011;60221;45.696;16.076;2023-09-19T09:57:34;10.10;;;2.00;;
72286;SDS011;60221;45.696;16.076;2023-09-19T10:00:02;6.00;;;1.70;;
72286;SDS011;60221;45.696;16.076;2023-09-19T10:02:43;5.80;;;1.90;;
72286;SDS011;60221;45.696;16.076;2023-09-19T10:05:14;7.20;;;2.10;;
72286;SDS011;60221;45.696;16.076;2023-09-19T10:07:48;6.20;;;2.30;;
72286;SDS011;60221;45.696;16.076;2023-09-19T10:10:29;9.70;;;2.20;;
72286;SDS011;60221;45.696;16.076;2023-09-19T10:12:57;6.90;;;2.60;;
72286;SDS011;60221;45.696;16.076;2023-09-19T10:15:31;8.10;;;1.60;;
72286;SDS011;60221;45.696;16.076;2023-09-19T10:18:00;5.10;;;1.80;;
72286;SDS011;60221;45.696;16.076;2023-09-19T10:20:28;4.80;;;2.10;;
72286;SDS011;60221;45.696;16.076;2023-09-19T10:23:09;4.30;;;1.50;;
72286;SDS011;60221;45.696;16.076;2023-09-19T10:25:39;5.90;;;2.00;;
72286;SDS011;60221;45.696;16.076;2023-09-19T10:28:08;4.80;;;1.70;;
72286;SDS011;60221;45.696;16.076;2023-09-19T10:33:11;6.30;;;1.90;;
72286;SDS011;60221;45.696;16.076;2023-09-19T10:35:39;4.70;;;2.40;;
72286;SDS011;60221;45.696;16.076;2023-09-19T10:38:17;5.00;;;1.30;;
72286;SDS011;60221;45.696;16.076;2023-09-19T10:40:48;6.40;;;1.40;;
72286;SDS011;60221;45.696;16.076;2023-09-19T10:43:17;4.80;;;1.40;;
72286;SDS011;60221;45.696;16.076;2023-09-19T10:45:45;5.50;;;1.80;;
72286;SDS011;60221;45.696;16.076;2023-09-19T10:48:13;5.40;;;1.80;;
72286;SDS011;60221;45.696;16.076;2023-09-19T10:50:47;4.20;;;1.70;;
72286;SDS011;60221;45.696;16.076;2023-09-19T10:53:16;4.00;;;1.50;;
72286;SDS011;60221;45.696;16.076;2023-09-19T10:55:50;6.30;;;1.90;;
72286;SDS011;60221;45.696;16.076;2023-09-19T10:58:24;5.20;;;1.80;;
72286;SDS011;60221;45.696;16.076;2023-09-19T11:00:53;4.10;;;1.50;;
72286;SDS011;60221;45.696;16.076;2023-09-19T11:03:20;3.70;;;1.30;;
72286;SDS011;60221;45.696;16.076;2023-09-19T11:06:04;5.40;;;1.40;;
72286;SDS011;60221;45.696;16.076;2023-09-19T11:08:52;5.50;;;1.90;;
72286;SDS011;60221;45.696;16.076;2023-09-19T11:22:19;5.90;;;1.80;;
72286;SDS011;60221;45.696;16.076;2023-09-19T11:24:49;4.10;;;1.80;;
72286;SDS011;60221;45.696;16.076;2023-09-19T11:27:17;5.60;;;2.00;;
72286;SDS011;60221;45.696;16.076;2023-09-19T11:29:45;5.50;;;1.90;;
72286;SDS011;60221;45.696;16.076;2023-09-19T11:32:11;4.90;;;1.60;;
72286;SDS011;60221;45.696;16.076;2023-09-19T11:34:42;5.50;;;1.40;;
72286;SDS011;60221;45.696;16.076;2023-09-19T11:48:24;3.90;;;1.40;;
72286;SDS011;60221;45.696;16.076;2023-09-19T11:50:54;3.90;;;1.50;;
72286;SDS011;60221;45.696;16.076;2023-09-19T11:53:21;4.40;;;1.50;;
72286;SDS011;60221;45.696;16.076;2023-09-19T11:55:49;6.80;;;1.80;;
72286;SDS011;60221;45.696;16.076;2023-09-19T11:58:17;6.10;;;1.90;;
72286;SDS011;60221;45.696;16.076;2023-09-19T12:00:45;4.20;;;1.40;;
72286;SDS011;60221;45.696;16.076;2023-09-19T12:03:12;4.30;;;1.50;;
72286;SDS011;60221;45.696;16.076;2023-09-19T12:05:41;5.40;;;1.30;;
72286;SDS011;60221;45.696;16.076;2023-09-19T12:08:07;3.90;;;1.30;;
72286;SDS011;60221;45.696;16.076;2023-09-19T12:10:47;4.20;;;1.70;;
72286;SDS011;60221;45.696;16.076;2023-09-19T12:13:18;5.70;;;1.40;;
72286;SDS011;60221;45.696;16.076;2023-09-19T12:15:45;4.80;;;1.30;;
72286;SDS011;60221;45.696;16.076;2023-09-19T12:18:27;3.30;;;1.40;;
72286;SDS011;60221;45.696;16.076;2023-09-19T12:20:54;3.60;;;1.20;;
72286;SDS011;60221;45.696;16.076;2023-09-19T12:23:22;3.40;;;1.20;;
72286;SDS011;60221;45.696;16.076;2023-09-19T12:25:49;4.00;;;1.40;;
72286;SDS011;60221;45.696;16.076;2023-09-19T12:28:19;7.00;;;3.70;;
72286;SDS011;60221;45.696;16.076;2023-09-19T12:30:49;4.50;;;1.70;;
72286;SDS011;60221;45.696;16.076;2023-09-19T12:33:18;4.20;;;1.10;;
72286;SDS011;60221;45.696;16.076;2023-09-19T12:35:46;3.90;;;1.20;;
72286;SDS011;60221;45.696;16.076;2023-09-19T12:38:22;3.50;;;1.40;;
72286;SDS011;60221;45.696;16.076;2023-09-19T12:40:50;4.00;;;1.50;;
72286;SDS011;60221;45.696;16.076;2023-09-19T12:43:18;4.20;;;1.50;;
72286;SDS011;60221;45.696;16.076;2023-09-19T12:45:45;4.20;;;2.10;;
72286;SDS011;60221;45.696;16.076;2023-09-19T12:48:18;3.30;;;1.10;;
72286;SDS011;60221;45.696;16.076;2023-09-19T12:51:06;4.40;;;1.40;;
72286;SDS011;60221;45.696;16.076;2023-09-19T12:53:34;3.80;;;1.50;;
72286;SDS011;60221;45.696;16.076;2023-09-19T12:56:06;6.10;;;2.90;;
72286;SDS011;60221;45.696;16.076;2023-09-19T12:58:47;3.70;;;1.30;;
72286;SDS011;60221;45.696;16.076;2023-09-19T13:01:15;5.00;;;1.50;;
72286;SDS011;60221;45.696;16.076;2023-09-19T13:03:42;4.00;;;1.20;;
72286;SDS011;60221;45.696;16.076;2023-09-19T13:06:09;3.80;;;1.60;;
72286;SDS011;60221;45.696;16.076;2023-09-19T13:08:39;3.70;;;1.10;;
72286;SDS011;60221;45.696;16.076;2023-09-19T13:11:15;4.60;;;1.50;;
72286;SDS011;60221;45.696;16.076;2023-09-19T13:14:30;3.20;;;1.20;;
72286;SDS011;60221;45.696;16.076;2023-09-19T13:16:31;5.70;;;1.30;;
72286;SDS011;60221;45.696;16.076;2023-09-19T13:18:58;4.40;;;1.30;;
72286;SDS011;60221;45.696;16.076;2023-09-19T13:21:34;6.30;;;1.40;;
72286;SDS011;60221;45.696;16.076;2023-09-19T13:24:19;5.50;;;1.10;;
72286;SDS011;60221;45.696;16.076;2023-09-19T13:26:46;3.80;;;1.30;;
72286;SDS011;60221;45.696;16.076;2023-09-19T13:29:13;3.70;;;1.10;;
72286;SDS011;60221;45.696;16.076;2023-09-19T13:31:50;5.20;;;1.30;;
72286;SDS011;60221;45.696;16.076;2023-09-19T13:34:17;4.60;;;1.50;;
72286;SDS011;60221;45.696;16.076;2023-09-19T13:36:44;4.10;;;1.30;;
72286;SDS011;60221;45.696;16.076;2023-09-19T13:39:11;4.70;;;1.20;;
72286;SDS011;60221;45.696;16.076;2023-09-19T13:41:39;5.20;;;1.20;;
72286;SDS011;60221;45.696;16.076;2023-09-19T13:44:06;3.30;;;0.70;;
72286;SDS011;60221;45.696;16.076;2023-09-19T13:46:33;4.50;;;1.60;;
72286;SDS011;60221;45.696;16.076;2023-09-19T13:49:02;3.40;;;0.90;;
72286;SDS011;60221;45.696;16.076;2023-09-19T13:51:30;3.20;;;1.00;;
72286;SDS011;60221;45.696;16.076;2023-09-19T13:53:57;5.00;;;1.30;;
72286;SDS011;60221;45.696;16.076;2023-09-19T13:56:24;3.80;;;1.10;;
72286;SDS011;60221;45.696;16.076;2023-09-19T13:58:51;3.80;;;1.20;;
72286;SDS011;60221;45.696;16.076;2023-09-19T14:01:19;4.00;;;1.30;;
72286;SDS011;60221;45.696;16.076;2023-09-19T14:03:45;6.10;;;1.30;;
72286;SDS011;60221;45.696;16.076;2023-09-19T14:06:13;3.60;;;1.40;;
72286;SDS011;60221;45.696;16.076;2023-09-19T14:08:39;4.90;;;1.40;;
72286;SDS011;60221;45.696;16.076;2023-09-19T14:11:07;6.50;;;1.60;;
72286;SDS011;60221;45.696;16.076;2023-09-19T14:13:34;3.50;;;1.40;;
72286;SDS011;60221;45.696;16.076;2023-09-19T14:16:04;5.30;;;1.50;;
72286;SDS011;60221;45.696;16.076;2023-09-19T14:18:31;3.50;;;1.40;;
72286;SDS011;60221;45.696;16.076;2023-09-19T14:21:01;5.10;;;1.60;;
72286;SDS011;60221;45.696;16.076;2023-09-19T14:23:34;5.40;;;1.50;;
72286;SDS011;60221;45.696;16.076;2023-09-19T14:26:00;3.30;;;1.40;;
72286;SDS011;60221;45.696;16.076;2023-09-19T14:28:27;3.80;;;1.50;;
72286;SDS011;60221;45.696;16.076;2023-09-19T14:30:56;3.50;;;1.40;;
72286;SDS011;60221;45.696;16.076;2023-09-19T14:33:23;4.80;;;1.70;;
72286;SDS011;60221;45.696;16.076;2023-09-19T14:35:49;4.10;;;1.30;;
72286;SDS011;60221;45.696;16.076;2023-09-19T14:38:16;5.20;;;1.30;;
72286;SDS011;60221;45.696;16.076;2023-09-19T14:40:43;5.10;;;1.60;;
72286;SDS011;60221;45.696;16.076;2023-09-19T14:43:10;5.40;;;1.40;;
72286;SDS011;60221;45.696;16.076;2023-09-19T14:45:36;3.20;;;1.30;;
72286;SDS011;60221;45.696;16.076;2023-09-19T14:48:04;4.70;;;1.20;;
72286;SDS011;60221;45.696;16.076;2023-09-19T14:50:32;4.20;;;1.40;;
72286;SDS011;60221;45.696;16.076;2023-09-19T14:52:59;3.80;;;1.30;;
72286;SDS011;60221;45.696;16.076;2023-09-19T14:55:28;5.30;;;1.50;;
72286;SDS011;60221;45.696;16.076;2023-09-19T14:58:00;5.10;;;1.50;;
72286;SDS011;60221;45.696;16.076;2023-09-19T15:00:29;3.60;;;1.20;;
72286;SDS011;60221;45.696;16.076;2023-09-19T15:02:56;4.00;;;1.30;;
72286;SDS011;60221;45.696;16.076;2023-09-19T15:05:24;3.80;;;1.20;;
72286;SDS011;60221;45.696;16.076;2023-09-19T15:07:51;3.60;;;1.00;;
72286;SDS011;60221;45.696;16.076;2023-09-19T15:10:17;6.70;;;1.40;;
72286;SDS011;60221;45.696;16.076;2023-09-19T15:12:45;4.00;;;1.10;;
72286;SDS011;60221;45.696;16.076;2023-09-19T15:15:12;3.60;;;1.30;;
72286;SDS011;60221;45.696;16.076;2023-09-19T15:17:39;4.00;;;1.20;;
72286;SDS011;60221;45.696;16.076;2023-09-19T15:20:07;3.60;;;1.20;;
72286;SDS011;60221;45.696;16.076;2023-09-19T15:22:34;4.20;;;1.40;;
72286;SDS011;60221;45.696;16.076;2023-09-19T15:25:04;4.80;;;1.40;;